sensor_id;sensor_type;location;lat;lon;timestamp;temperature;humidity
45849;DHT22;31567;54.600;9.842;2022-11-21T00:02:36;1.40;98.80
45849;DHT22;31567;54.600;9.842;2022-11-21T00:06:16;1.40;98.80
45849;DHT22;31567;54.600;9.842;2022-11-21T00:09:56;1.40;98.90
45849;DHT22;31567;54.600;9.842;2022-11-21T00:13:36;1.40;98.90
45849;DHT22;31567;54.600;9.842;2022-11-21T00:17:16;1.60;99.10
45849;DHT22;31567;54.600;9.842;2022-11-21T00:20:55;1.70;99.00
45849;DHT22;31567;54.600;9.842;2022-11-21T00:24:35;1.70;99.00
45849;DHT22;31567;54.600;9.842;2022-11-21T00:28:14;1.80;99.00
45849;DHT22;31567;54.600;9.842;2022-11-21T00:31:54;1.80;99.00
45849;DHT22;31567;54.600;9.842;2022-11-21T00:35:33;1.80;98.90
45849;DHT22;31567;54.600;9.842;2022-11-21T00:39:13;1.80;99.00
45849;DHT22;31567;54.600;9.842;2022-11-21T00:42:52;1.80;99.00
45849;DHT22;31567;54.600;9.842;2022-11-21T00:46:32;1.80;99.00
45849;DHT22;31567;54.600;9.842;2022-11-21T00:50:12;1.80;99.00
45849;DHT22;31567;54.600;9.842;2022-11-21T00:53:51;1.90;99.00
45849;DHT22;31567;54.600;9.842;2022-11-21T00:57:31;1.90;99.00
45849;DHT22;31567;54.600;9.842;2022-11-21T01:01:12;1.90;98.90
45849;DHT22;31567;54.600;9.842;2022-11-21T01:04:52;1.90;99.00
45849;DHT22;31567;54.600;9.842;2022-11-21T01:08:34;1.90;99.00
45849;DHT22;31567;54.600;9.842;2022-11-21T01:12:14;1.90;98.90
45849;DHT22;31567;54.600;9.842;2022-11-21T01:15:54;2.00;98.90
45849;DHT22;31567;54.600;9.842;2022-11-21T01:19:33;2.00;98.80
45849;DHT22;31567;54.600;9.842;2022-11-21T01:23:13;2.00;98.80
45849;DHT22;31567;54.600;9.842;2022-11-21T01:26:52;2.00;98.70
45849;DHT22;31567;54.600;9.842;2022-11-21T01:30:32;2.00;98.70
45849;DHT22;31567;54.600;9.842;2022-11-21T01:34:12;2.00;98.70
45849;DHT22;31567;54.600;9.842;2022-11-21T01:37:53;2.00;98.70
45849;DHT22;31567;54.600;9.842;2022-11-21T01:41:35;2.00;98.60
45849;DHT22;31567;54.600;9.842;2022-11-21T01:45:50;2.10;98.60
45849;DHT22;31567;54.600;9.842;2022-11-21T01:49:32;2.00;98.50
45849;DHT22;31567;54.600;9.842;2022-11-21T01:53:11;2.10;98.50
45849;DHT22;31567;54.600;9.842;2022-11-21T02:00:41;2.10;98.30
45849;DHT22;31567;54.600;9.842;2022-11-21T02:04:27;2.00;98.30
45849;DHT22;31567;54.600;9.842;2022-11-21T02:08:13;2.00;98.20
45849;DHT22;31567;54.600;9.842;2022-11-21T02:12:03;2.10;98.30
45849;DHT22;31567;54.600;9.842;2022-11-21T02:15:43;2.10;98.20
45849;DHT22;31567;54.600;9.842;2022-11-21T02:19:31;2.10;98.20
45849;DHT22;31567;54.600;9.842;2022-11-21T02:23:53;2.10;98.10
45849;DHT22;31567;54.600;9.842;2022-11-21T02:27:36;2.10;98.10
45849;DHT22;31567;54.600;9.842;2022-11-21T02:31:16;2.10;98.10
45849;DHT22;31567;54.600;9.842;2022-11-21T02:34:55;2.10;98.00
45849;DHT22;31567;54.600;9.842;2022-11-21T02:38:37;2.20;98.10
45849;DHT22;31567;54.600;9.842;2022-11-21T02:42:42;2.10;97.90
45849;DHT22;31567;54.600;9.842;2022-11-21T02:46:24;2.20;97.90
45849;DHT22;31567;54.600;9.842;2022-11-21T02:50:19;2.20;97.90
45849;DHT22;31567;54.600;9.842;2022-11-21T02:54:00;2.20;97.80
45849;DHT22;31567;54.600;9.842;2022-11-21T02:57:40;2.10;97.70
45849;DHT22;31567;54.600;9.842;2022-11-21T03:01:20;2.10;97.70
45849;DHT22;31567;54.600;9.842;2022-11-21T03:05:00;2.10;97.70
45849;DHT22;31567;54.600;9.842;2022-11-21T03:08:40;2.20;97.70
45849;DHT22;31567;54.600;9.842;2022-11-21T03:12:20;2.10;97.70
45849;DHT22;31567;54.600;9.842;2022-11-21T03:15:59;2.10;97.60
45849;DHT22;31567;54.600;9.842;2022-11-21T03:19:39;2.10;97.60
45849;DHT22;31567;54.600;9.842;2022-11-21T03:23:18;2.20;97.60
45849;DHT22;31567;54.600;9.842;2022-11-21T03:26:58;2.10;97.60
45849;DHT22;31567;54.600;9.842;2022-11-21T03:30:38;2.20;97.50
45849;DHT22;31567;54.600;9.842;2022-11-21T03:34:17;2.10;97.50
45849;DHT22;31567;54.600;9.842;2022-11-21T03:37:57;2.10;97.50
45849;DHT22;31567;54.600;9.842;2022-11-21T03:41:36;2.10;97.50
45849;DHT22;31567;54.600;9.842;2022-11-21T03:45:16;2.10;97.50
45849;DHT22;31567;54.600;9.842;2022-11-21T03:48:55;2.10;97.60
45849;DHT22;31567;54.600;9.842;2022-11-21T03:52:35;2.10;97.60
45849;DHT22;31567;54.600;9.842;2022-11-21T03:56:15;2.00;97.60
45849;DHT22;31567;54.600;9.842;2022-11-21T03:59:55;2.00;97.70
45849;DHT22;31567;54.600;9.842;2022-11-21T04:03:35;2.00;97.80
45849;DHT22;31567;54.600;9.842;2022-11-21T04:07:14;1.90;97.70
45849;DHT22;31567;54.600;9.842;2022-11-21T04:10:54;1.90;97.80
45849;DHT22;31567;54.600;9.842;2022-11-21T04:14:34;1.90;97.90
45849;DHT22;31567;54.600;9.842;2022-11-21T04:18:13;1.90;97.90
45849;DHT22;31567;54.600;9.842;2022-11-21T04:21:53;1.90;97.90
45849;DHT22;31567;54.600;9.842;2022-11-21T04:25:33;1.90;97.90
45849;DHT22;31567;54.600;9.842;2022-11-21T04:29:12;1.90;98.00
45849;DHT22;31567;54.600;9.842;2022-11-21T04:32:53;1.90;98.00
45849;DHT22;31567;54.600;9.842;2022-11-21T04:36:32;1.90;98.00
45849;DHT22;31567;54.600;9.842;2022-11-21T04:40:12;1.90;98.00
45849;DHT22;31567;54.600;9.842;2022-11-21T04:43:52;1.80;98.00
45849;DHT22;31567;54.600;9.842;2022-11-21T04:47:38;1.80;98.10
45849;DHT22;31567;54.600;9.842;2022-11-21T04:51:18;1.80;98.20
45849;DHT22;31567;54.600;9.842;2022-11-21T04:54:58;1.80;98.40
45849;DHT22;31567;54.600;9.842;2022-11-21T04:58:37;1.80;98.40
45849;DHT22;31567;54.600;9.842;2022-11-21T05:02:17;1.80;98.40
45849;DHT22;31567;54.600;9.842;2022-11-21T05:05:56;1.80;98.30
45849;DHT22;31567;54.600;9.842;2022-11-21T05:09:36;1.80;98.30
45849;DHT22;31567;54.600;9.842;2022-11-21T05:13:15;1.80;98.40
45849;DHT22;31567;54.600;9.842;2022-11-21T05:17:00;1.80;98.40
45849;DHT22;31567;54.600;9.842;2022-11-21T05:20:40;1.80;98.30
45849;DHT22;31567;54.600;9.842;2022-11-21T05:24:20;1.80;98.30
45849;DHT22;31567;54.600;9.842;2022-11-21T05:27:59;1.80;98.30
45849;DHT22;31567;54.600;9.842;2022-11-21T05:31:39;1.80;98.20
45849;DHT22;31567;54.600;9.842;2022-11-21T05:35:18;1.80;98.10
45849;DHT22;31567;54.600;9.842;2022-11-21T05:38:58;1.80;98.00
45849;DHT22;31567;54.600;9.842;2022-11-21T05:42:39;1.80;97.90
45849;DHT22;31567;54.600;9.842;2022-11-21T05:46:37;1.90;97.90
45849;DHT22;31567;54.600;9.842;2022-11-21T05:50:16;1.90;97.90
45849;DHT22;31567;54.600;9.842;2022-11-21T05:53:56;2.00;97.80
45849;DHT22;31567;54.600;9.842;2022-11-21T05:57:35;2.00;97.80
45849;DHT22;31567;54.600;9.842;2022-11-21T06:01:15;2.00;97.80
45849;DHT22;31567;54.600;9.842;2022-11-21T06:05:15;2.10;97.80
45849;DHT22;31567;54.600;9.842;2022-11-21T06:08:54;2.10;97.80
45849;DHT22;31567;54.600;9.842;2022-11-21T06:12:34;2.10;97.70
45849;DHT22;31567;54.600;9.842;2022-11-21T06:16:15;2.20;97.70
45849;DHT22;31567;54.600;9.842;2022-11-21T06:19:55;2.20;97.90
45849;DHT22;31567;54.600;9.842;2022-11-21T06:23:35;2.20;98.10
45849;DHT22;31567;54.600;9.842;2022-11-21T06:27:14;2.10;98.20
45849;DHT22;31567;54.600;9.842;2022-11-21T06:30:54;2.10;98.40
45849;DHT22;31567;54.600;9.842;2022-11-21T06:34:33;2.10;98.60
45849;DHT22;31567;54.600;9.842;2022-11-21T06:38:13;2.10;98.70
45849;DHT22;31567;54.600;9.842;2022-11-21T06:41:56;2.10;98.80
45849;DHT22;31567;54.600;9.842;2022-11-21T06:45:37;2.10;99.10
45849;DHT22;31567;54.600;9.842;2022-11-21T06:49:16;2.10;99.20
45849;DHT22;31567;54.600;9.842;2022-11-21T06:52:59;2.20;99.30
45849;DHT22;31567;54.600;9.842;2022-11-21T06:56:39;2.20;99.40
45849;DHT22;31567;54.600;9.842;2022-11-21T07:00:18;2.20;99.40
45849;DHT22;31567;54.600;9.842;2022-11-21T07:03:59;2.30;99.50
45849;DHT22;31567;54.600;9.842;2022-11-21T07:07:38;2.20;99.60
45849;DHT22;31567;54.600;9.842;2022-11-21T07:11:18;2.20;99.70
45849;DHT22;31567;54.600;9.842;2022-11-21T07:14:58;2.20;99.60
45849;DHT22;31567;54.600;9.842;2022-11-21T07:18:37;2.20;99.60
45849;DHT22;31567;54.600;9.842;2022-11-21T07:22:17;2.20;99.60
45849;DHT22;31567;54.600;9.842;2022-11-21T07:26:01;2.20;99.50
45849;DHT22;31567;54.600;9.842;2022-11-21T07:29:41;2.20;99.40
45849;DHT22;31567;54.600;9.842;2022-11-21T07:33:21;2.30;99.40
45849;DHT22;31567;54.600;9.842;2022-11-21T07:37:00;2.40;99.50
45849;DHT22;31567;54.600;9.842;2022-11-21T07:40:40;2.40;99.40
45849;DHT22;31567;54.600;9.842;2022-11-21T07:44:20;2.40;99.40
45849;DHT22;31567;54.600;9.842;2022-11-21T07:48:01;2.50;99.20
45849;DHT22;31567;54.600;9.842;2022-11-21T07:51:40;2.50;99.10
45849;DHT22;31567;54.600;9.842;2022-11-21T07:55:20;2.50;99.10
45849;DHT22;31567;54.600;9.842;2022-11-21T07:58:59;2.50;99.10
45849;DHT22;31567;54.600;9.842;2022-11-21T08:02:39;2.50;99.10
45849;DHT22;31567;54.600;9.842;2022-11-21T08:06:18;2.50;99.20
45849;DHT22;31567;54.600;9.842;2022-11-21T08:09:58;2.60;99.40
45849;DHT22;31567;54.600;9.842;2022-11-21T08:13:37;2.60;99.70
45849;DHT22;31567;54.600;9.842;2022-11-21T08:17:17;2.60;99.90
45849;DHT22;31567;54.600;9.842;2022-11-21T08:20:59;2.60;99.90
45849;DHT22;31567;54.600;9.842;2022-11-21T08:24:39;2.60;99.90
45849;DHT22;31567;54.600;9.842;2022-11-21T08:28:19;2.70;99.90
45849;DHT22;31567;54.600;9.842;2022-11-21T08:31:58;2.80;99.90
45849;DHT22;31567;54.600;9.842;2022-11-21T08:35:38;2.80;99.90
45849;DHT22;31567;54.600;9.842;2022-11-21T08:39:17;2.90;99.90
45849;DHT22;31567;54.600;9.842;2022-11-21T08:42:58;2.80;99.90
45849;DHT22;31567;54.600;9.842;2022-11-21T08:46:38;2.90;99.90
45849;DHT22;31567;54.600;9.842;2022-11-21T08:50:18;2.90;99.90
45849;DHT22;31567;54.600;9.842;2022-11-21T08:53:58;2.90;99.90
45849;DHT22;31567;54.600;9.842;2022-11-21T08:57:38;2.90;99.90
45849;DHT22;31567;54.600;9.842;2022-11-21T09:01:18;3.00;99.90
45849;DHT22;31567;54.600;9.842;2022-11-21T09:04:57;3.00;99.80
45849;DHT22;31567;54.600;9.842;2022-11-21T09:08:38;3.00;99.80
45849;DHT22;31567;54.600;9.842;2022-11-21T09:12:18;3.10;99.80
45849;DHT22;31567;54.600;9.842;2022-11-21T09:15:58;3.10;99.70
45849;DHT22;31567;54.600;9.842;2022-11-21T09:19:56;3.10;99.70
45849;DHT22;31567;54.600;9.842;2022-11-21T09:23:36;3.10;99.70
45849;DHT22;31567;54.600;9.842;2022-11-21T09:27:15;3.20;99.80
45849;DHT22;31567;54.600;9.842;2022-11-21T09:30:55;3.20;99.80
45849;DHT22;31567;54.600;9.842;2022-11-21T09:34:34;3.20;99.80
45849;DHT22;31567;54.600;9.842;2022-11-21T09:38:14;3.30;99.90
45849;DHT22;31567;54.600;9.842;2022-11-21T09:42:02;3.20;99.90
45849;DHT22;31567;54.600;9.842;2022-11-21T09:46:15;3.20;99.90
45849;DHT22;31567;54.600;9.842;2022-11-21T09:50:12;3.20;99.90
45849;DHT22;31567;54.600;9.842;2022-11-21T09:54:13;3.20;99.90
45849;DHT22;31567;54.600;9.842;2022-11-21T09:57:54;3.20;99.90
45849;DHT22;31567;54.600;9.842;2022-11-21T10:01:33;3.20;99.90
45849;DHT22;31567;54.600;9.842;2022-11-21T10:05:15;3.20;99.90
45849;DHT22;31567;54.600;9.842;2022-11-21T10:16:52;3.30;99.90
45849;DHT22;31567;54.600;9.842;2022-11-21T10:20:49;3.30;99.90
45849;DHT22;31567;54.600;9.842;2022-11-21T10:28:21;3.30;99.90
45849;DHT22;31567;54.600;9.842;2022-11-21T10:39:53;3.30;99.90
45849;DHT22;31567;54.600;9.842;2022-11-21T10:47:35;3.30;99.90
45849;DHT22;31567;54.600;9.842;2022-11-21T10:51:26;3.40;99.90
45849;DHT22;31567;54.600;9.842;2022-11-21T10:55:12;3.40;99.90
45849;DHT22;31567;54.600;9.842;2022-11-21T10:58:55;3.40;99.90
45849;DHT22;31567;54.600;9.842;2022-11-21T11:02:34;3.40;99.90
45849;DHT22;31567;54.600;9.842;2022-11-21T11:06:26;3.50;99.90
45849;DHT22;31567;54.600;9.842;2022-11-21T11:10:23;3.50;99.90
45849;DHT22;31567;54.600;9.842;2022-11-21T11:14:05;3.60;99.90
45849;DHT22;31567;54.600;9.842;2022-11-21T11:17:50;3.70;99.90
45849;DHT22;31567;54.600;9.842;2022-11-21T11:21:42;3.70;99.90
45849;DHT22;31567;54.600;9.842;2022-11-21T11:25:25;3.70;99.90
45849;DHT22;31567;54.600;9.842;2022-11-21T11:29:18;3.70;99.40
45849;DHT22;31567;54.600;9.842;2022-11-21T11:32:58;3.80;99.40
45849;DHT22;31567;54.600;9.842;2022-11-21T11:40:42;3.90;99.40
45849;DHT22;31567;54.600;9.842;2022-11-21T11:44:34;4.00;99.40
45849;DHT22;31567;54.600;9.842;2022-11-21T11:48:36;4.00;99.30
45849;DHT22;31567;54.600;9.842;2022-11-21T11:52:21;4.10;99.40
45849;DHT22;31567;54.600;9.842;2022-11-21T11:56:18;4.10;99.40
45849;DHT22;31567;54.600;9.842;2022-11-21T12:04:05;4.10;98.80
45849;DHT22;31567;54.600;9.842;2022-11-21T12:15:57;4.20;98.40
45849;DHT22;31567;54.600;9.842;2022-11-21T12:19:40;4.20;98.10
45849;DHT22;31567;54.600;9.842;2022-11-21T12:23:19;4.20;98.20
45849;DHT22;31567;54.600;9.842;2022-11-21T12:31:10;4.30;98.60
45849;DHT22;31567;54.600;9.842;2022-11-21T12:38:56;4.30;98.30
45849;DHT22;31567;54.600;9.842;2022-11-21T12:47:12;4.20;98.30
45849;DHT22;31567;54.600;9.842;2022-11-21T12:51:02;4.30;98.20
45849;DHT22;31567;54.600;9.842;2022-11-21T12:55:17;4.20;98.20
45849;DHT22;31567;54.600;9.842;2022-11-21T12:58:59;4.20;98.20
45849;DHT22;31567;54.600;9.842;2022-11-21T13:06:32;4.20;97.90
45849;DHT22;31567;54.600;9.842;2022-11-21T13:10:15;4.30;98.00
45849;DHT22;31567;54.600;9.842;2022-11-21T13:21:54;4.30;97.80
45849;DHT22;31567;54.600;9.842;2022-11-21T13:25:35;4.30;97.80
45849;DHT22;31567;54.600;9.842;2022-11-21T13:29:16;4.30;97.90
45849;DHT22;31567;54.600;9.842;2022-11-21T13:32:56;4.30;97.80
45849;DHT22;31567;54.600;9.842;2022-11-21T13:36:36;4.30;97.70
45849;DHT22;31567;54.600;9.842;2022-11-21T13:40:38;4.30;97.60
45849;DHT22;31567;54.600;9.842;2022-11-21T13:52:30;4.30;97.30
45849;DHT22;31567;54.600;9.842;2022-11-21T13:56:28;4.40;97.40
45849;DHT22;31567;54.600;9.842;2022-11-21T14:00:25;4.30;97.40
45849;DHT22;31567;54.600;9.842;2022-11-21T14:12:02;4.30;97.00
45849;DHT22;31567;54.600;9.842;2022-11-21T14:15:56;4.30;97.30
45849;DHT22;31567;54.600;9.842;2022-11-21T14:19:40;4.30;97.10
45849;DHT22;31567;54.600;9.842;2022-11-21T14:23:22;4.20;96.80
45849;DHT22;31567;54.600;9.842;2022-11-21T14:27:04;4.20;96.90
45849;DHT22;31567;54.600;9.842;2022-11-21T14:30:45;4.30;96.90
45849;DHT22;31567;54.600;9.842;2022-11-21T14:34:26;4.20;96.90
45849;DHT22;31567;54.600;9.842;2022-11-21T14:38:06;4.30;96.90
45849;DHT22;31567;54.600;9.842;2022-11-21T14:41:50;4.30;97.00
45849;DHT22;31567;54.600;9.842;2022-11-21T14:45:30;4.30;97.10
45849;DHT22;31567;54.600;9.842;2022-11-21T14:52:55;4.40;97.00
45849;DHT22;31567;54.600;9.842;2022-11-21T14:56:39;4.40;97.00
45849;DHT22;31567;54.600;9.842;2022-11-21T15:00:22;4.30;97.00
45849;DHT22;31567;54.600;9.842;2022-11-21T15:04:05;4.40;97.00
45849;DHT22;31567;54.600;9.842;2022-11-21T15:07:46;4.20;97.20
45849;DHT22;31567;54.600;9.842;2022-11-21T15:11:39;4.20;97.20
45849;DHT22;31567;54.600;9.842;2022-11-21T15:15:26;4.10;97.20
45849;DHT22;31567;54.600;9.842;2022-11-21T15:19:10;4.10;97.20
45849;DHT22;31567;54.600;9.842;2022-11-21T15:22:52;4.10;97.40
45849;DHT22;31567;54.600;9.842;2022-11-21T15:26:33;4.00;97.40
45849;DHT22;31567;54.600;9.842;2022-11-21T15:37:37;4.10;97.60
45849;DHT22;31567;54.600;9.842;2022-11-21T15:45:25;4.20;97.70
45849;DHT22;31567;54.600;9.842;2022-11-21T15:49:06;4.10;97.70
45849;DHT22;31567;54.600;9.842;2022-11-21T15:52:48;4.10;97.80
45849;DHT22;31567;54.600;9.842;2022-11-21T15:56:28;4.20;97.80
45849;DHT22;31567;54.600;9.842;2022-11-21T16:00:08;4.20;97.90
45849;DHT22;31567;54.600;9.842;2022-11-21T16:03:49;4.20;97.80
45849;DHT22;31567;54.600;9.842;2022-11-21T16:07:29;4.30;97.90
45849;DHT22;31567;54.600;9.842;2022-11-21T16:11:28;4.30;97.90
45849;DHT22;31567;54.600;9.842;2022-11-21T16:15:08;4.40;98.00
45849;DHT22;31567;54.600;9.842;2022-11-21T16:18:48;4.30;97.90
45849;DHT22;31567;54.600;9.842;2022-11-21T16:22:27;4.30;97.90
45849;DHT22;31567;54.600;9.842;2022-11-21T16:26:08;4.30;97.90
45849;DHT22;31567;54.600;9.842;2022-11-21T16:29:48;4.40;97.90
45849;DHT22;31567;54.600;9.842;2022-11-21T16:33:28;4.40;98.00
45849;DHT22;31567;54.600;9.842;2022-11-21T16:37:08;4.40;98.00
45849;DHT22;31567;54.600;9.842;2022-11-21T16:40:55;4.50;98.00
45849;DHT22;31567;54.600;9.842;2022-11-21T16:44:35;4.50;98.00
45849;DHT22;31567;54.600;9.842;2022-11-21T16:48:15;4.50;97.90
45849;DHT22;31567;54.600;9.842;2022-11-21T16:51:55;4.60;97.90
45849;DHT22;31567;54.600;9.842;2022-11-21T16:55:37;4.60;97.90
45849;DHT22;31567;54.600;9.842;2022-11-21T16:59:16;4.50;97.90
45849;DHT22;31567;54.600;9.842;2022-11-21T17:02:56;4.60;98.20
45849;DHT22;31567;54.600;9.842;2022-11-21T17:06:36;4.50;97.70
45849;DHT22;31567;54.600;9.842;2022-11-21T17:10:15;4.50;97.70
45849;DHT22;31567;54.600;9.842;2022-11-21T17:13:58;4.50;97.80
45849;DHT22;31567;54.600;9.842;2022-11-21T17:17:39;4.50;97.50
45849;DHT22;31567;54.600;9.842;2022-11-21T17:21:19;4.50;97.40
45849;DHT22;31567;54.600;9.842;2022-11-21T17:24:58;4.50;97.30
45849;DHT22;31567;54.600;9.842;2022-11-21T17:28:38;4.50;97.10
45849;DHT22;31567;54.600;9.842;2022-11-21T17:32:18;4.40;97.10
45849;DHT22;31567;54.600;9.842;2022-11-21T17:36:05;4.30;97.00
45849;DHT22;31567;54.600;9.842;2022-11-21T17:39:44;4.30;97.00
45849;DHT22;31567;54.600;9.842;2022-11-21T17:43:24;4.30;97.00
45849;DHT22;31567;54.600;9.842;2022-11-21T17:47:04;4.30;97.00
45849;DHT22;31567;54.600;9.842;2022-11-21T17:50:43;4.20;97.00
45849;DHT22;31567;54.600;9.842;2022-11-21T17:54:23;4.20;97.00
45849;DHT22;31567;54.600;9.842;2022-11-21T17:58:02;4.20;97.00
45849;DHT22;31567;54.600;9.842;2022-11-21T18:01:42;4.20;97.00
45849;DHT22;31567;54.600;9.842;2022-11-21T18:05:21;4.20;97.00
45849;DHT22;31567;54.600;9.842;2022-11-21T18:09:02;4.20;97.00
45849;DHT22;31567;54.600;9.842;2022-11-21T18:12:42;4.20;97.00
45849;DHT22;31567;54.600;9.842;2022-11-21T18:16:24;4.30;97.20
45849;DHT22;31567;54.600;9.842;2022-11-21T18:20:04;4.20;96.90
45849;DHT22;31567;54.600;9.842;2022-11-21T18:23:44;4.30;96.90
45849;DHT22;31567;54.600;9.842;2022-11-21T18:27:23;4.20;96.80
45849;DHT22;31567;54.600;9.842;2022-11-21T18:31:07;4.30;96.80
45849;DHT22;31567;54.600;9.842;2022-11-21T18:34:47;4.30;96.70
45849;DHT22;31567;54.600;9.842;2022-11-21T18:38:30;4.30;96.60
45849;DHT22;31567;54.600;9.842;2022-11-21T18:42:11;4.30;96.60
45849;DHT22;31567;54.600;9.842;2022-11-21T18:45:50;4.30;96.50
45849;DHT22;31567;54.600;9.842;2022-11-21T18:49:30;4.30;96.30
45849;DHT22;31567;54.600;9.842;2022-11-21T18:53:09;4.20;96.20
45849;DHT22;31567;54.600;9.842;2022-11-21T18:56:49;4.00;96.30
45849;DHT22;31567;54.600;9.842;2022-11-21T19:00:28;4.00;96.50
45849;DHT22;31567;54.600;9.842;2022-11-21T19:04:08;3.90;96.50
45849;DHT22;31567;54.600;9.842;2022-11-21T19:07:48;3.90;96.70
45849;DHT22;31567;54.600;9.842;2022-11-21T19:11:30;3.90;96.80
45849;DHT22;31567;54.600;9.842;2022-11-21T19:15:09;3.80;96.90
45849;DHT22;31567;54.600;9.842;2022-11-21T19:18:49;3.80;97.00
45849;DHT22;31567;54.600;9.842;2022-11-21T19:22:29;3.70;97.00
45849;DHT22;31567;54.600;9.842;2022-11-21T19:26:14;3.70;97.10
45849;DHT22;31567;54.600;9.842;2022-11-21T19:29:54;3.60;97.10
45849;DHT22;31567;54.600;9.842;2022-11-21T19:33:33;3.50;97.30
45849;DHT22;31567;54.600;9.842;2022-11-21T19:37:13;3.50;97.40
45849;DHT22;31567;54.600;9.842;2022-11-21T19:40:52;3.40;97.40
45849;DHT22;31567;54.600;9.842;2022-11-21T19:44:50;3.40;97.40
45849;DHT22;31567;54.600;9.842;2022-11-21T19:48:30;3.40;97.40
45849;DHT22;31567;54.600;9.842;2022-11-21T19:52:10;3.40;97.40
45849;DHT22;31567;54.600;9.842;2022-11-21T19:55:49;3.30;97.50
45849;DHT22;31567;54.600;9.842;2022-11-21T19:59:29;3.30;97.50
45849;DHT22;31567;54.600;9.842;2022-11-21T20:03:09;3.20;97.60
45849;DHT22;31567;54.600;9.842;2022-11-21T20:06:49;3.10;97.60
45849;DHT22;31567;54.600;9.842;2022-11-21T20:10:28;3.10;97.60
45849;DHT22;31567;54.600;9.842;2022-11-21T20:14:11;3.00;97.60
45849;DHT22;31567;54.600;9.842;2022-11-21T20:17:51;3.00;97.70
45849;DHT22;31567;54.600;9.842;2022-11-21T20:21:31;3.00;97.80
45849;DHT22;31567;54.600;9.842;2022-11-21T20:25:11;2.90;97.70
45849;DHT22;31567;54.600;9.842;2022-11-21T20:28:51;2.80;97.70
45849;DHT22;31567;54.600;9.842;2022-11-21T20:32:31;2.80;97.70
45849;DHT22;31567;54.600;9.842;2022-11-21T20:36:17;2.80;97.70
45849;DHT22;31567;54.600;9.842;2022-11-21T20:39:57;2.80;97.70
45849;DHT22;31567;54.600;9.842;2022-11-21T20:43:37;2.70;97.60
45849;DHT22;31567;54.600;9.842;2022-11-21T20:47:16;2.70;97.50
45849;DHT22;31567;54.600;9.842;2022-11-21T20:50:56;2.70;97.60
45849;DHT22;31567;54.600;9.842;2022-11-21T20:54:36;2.60;97.60
45849;DHT22;31567;54.600;9.842;2022-11-21T20:58:16;2.60;97.60
45849;DHT22;31567;54.600;9.842;2022-11-21T21:01:56;2.60;97.60
45849;DHT22;31567;54.600;9.842;2022-11-21T21:05:35;2.50;97.70
45849;DHT22;31567;54.600;9.842;2022-11-21T21:09:15;2.40;97.70
45849;DHT22;31567;54.600;9.842;2022-11-21T21:12:56;2.50;97.90
45849;DHT22;31567;54.600;9.842;2022-11-21T21:16:36;2.50;97.90
45849;DHT22;31567;54.600;9.842;2022-11-21T21:20:15;2.40;98.10
45849;DHT22;31567;54.600;9.842;2022-11-21T21:23:58;2.40;98.20
45849;DHT22;31567;54.600;9.842;2022-11-21T21:27:37;2.30;98.40
45849;DHT22;31567;54.600;9.842;2022-11-21T21:31:18;2.30;98.70
45849;DHT22;31567;54.600;9.842;2022-11-21T21:34:58;2.30;98.90
45849;DHT22;31567;54.600;9.842;2022-11-21T21:38:38;2.20;98.90
45849;DHT22;31567;54.600;9.842;2022-11-21T21:42:18;2.10;99.00
45849;DHT22;31567;54.600;9.842;2022-11-21T21:46:09;2.00;98.90
45849;DHT22;31567;54.600;9.842;2022-11-21T21:49:49;2.00;99.20
45849;DHT22;31567;54.600;9.842;2022-11-21T21:53:29;2.00;99.10
45849;DHT22;31567;54.600;9.842;2022-11-21T21:57:09;2.10;99.10
45849;DHT22;31567;54.600;9.842;2022-11-21T22:00:49;2.00;99.00
45849;DHT22;31567;54.600;9.842;2022-11-21T22:04:28;1.90;99.10
45849;DHT22;31567;54.600;9.842;2022-11-21T22:08:10;1.90;99.30
45849;DHT22;31567;54.600;9.842;2022-11-21T22:11:49;2.00;99.40
45849;DHT22;31567;54.600;9.842;2022-11-21T22:15:29;1.90;99.40
45849;DHT22;31567;54.600;9.842;2022-11-21T22:19:08;1.90;99.50
45849;DHT22;31567;54.600;9.842;2022-11-21T22:22:48;1.80;99.50
45849;DHT22;31567;54.600;9.842;2022-11-21T22:26:28;1.80;99.70
45849;DHT22;31567;54.600;9.842;2022-11-21T22:30:08;1.80;99.60
45849;DHT22;31567;54.600;9.842;2022-11-21T22:33:49;1.90;99.60
45849;DHT22;31567;54.600;9.842;2022-11-21T22:37:29;1.90;99.50
45849;DHT22;31567;54.600;9.842;2022-11-21T22:41:13;1.80;99.50
45849;DHT22;31567;54.600;9.842;2022-11-21T22:44:53;1.80;99.60
45849;DHT22;31567;54.600;9.842;2022-11-21T22:48:32;1.80;99.50
45849;DHT22;31567;54.600;9.842;2022-11-21T22:52:13;1.80;99.50
45849;DHT22;31567;54.600;9.842;2022-11-21T22:56:00;1.90;99.40
45849;DHT22;31567;54.600;9.842;2022-11-21T22:59:40;1.90;99.30
45849;DHT22;31567;54.600;9.842;2022-11-21T23:03:19;1.90;99.40
45849;DHT22;31567;54.600;9.842;2022-11-21T23:06:59;1.90;99.30
45849;DHT22;31567;54.600;9.842;2022-11-21T23:10:39;1.90;99.20
45849;DHT22;31567;54.600;9.842;2022-11-21T23:14:19;1.90;99.20
45849;DHT22;31567;54.600;9.842;2022-11-21T23:17:58;1.90;99.20
45849;DHT22;31567;54.600;9.842;2022-11-21T23:21:38;2.00;99.20
45849;DHT22;31567;54.600;9.842;2022-11-21T23:25:17;2.10;99.20
45849;DHT22;31567;54.600;9.842;2022-11-21T23:28:57;2.10;99.20
45849;DHT22;31567;54.600;9.842;2022-11-21T23:32:36;2.10;99.20
45849;DHT22;31567;54.600;9.842;2022-11-21T23:36:16;2.10;99.20
45849;DHT22;31567;54.600;9.842;2022-11-21T23:39:55;2.10;99.30
45849;DHT22;31567;54.600;9.842;2022-11-21T23:43:35;2.10;99.30
45849;DHT22;31567;54.600;9.842;2022-11-21T23:47:15;2.00;99.40
45849;DHT22;31567;54.600;9.842;2022-11-21T23:50:54;1.90;99.30
45849;DHT22;31567;54.600;9.842;2022-11-21T23:54:34;1.90;99.40
45849;DHT22;31567;54.600;9.842;2022-11-21T23:58:13;2.00;99.40
